sensor_id;sensor_type;location;lat;lon;timestamp;pressure;altitude;pressure_sealevel;temperature;humidity
52343;BME280;38277;51.972;4.624;2023-03-18T00:04:22;100940.0;;;13.3;69.0
52343;BME280;38277;51.972;4.624;2023-03-18T00:08:34;100940.0;;;13.3;69.0
52343;BME280;38277;51.972;4.624;2023-03-18T00:13:30;100940.0;;;13.3;69.0
52343;BME280;38277;51.972;4.624;2023-03-18T00:17:37;100930.0;;;13.2;69.0
52343;BME280;38277;51.972;4.624;2023-03-18T00:22:07;100940.0;;;13.1;69.5
52343;BME280;38277;51.972;4.624;2023-03-18T00:26:56;100940.0;;;13.1;69.5
52343;BME280;38277;51.972;4.624;2023-03-18T00:31:30;100930.0;;;13.1;70.0
52343;BME280;38277;51.972;4.624;2023-03-18T00:35:53;100940.0;;;13.0;70.0
52343;BME280;38277;51.972;4.624;2023-03-18T00:40:16;100930.0;;;13.0;70.5
52343;BME280;38277;51.972;4.624;2023-03-18T00:44:46;100930.0;;;12.9;70.5
52343;BME280;38277;51.972;4.624;2023-03-18T00:49:16;100930.0;;;12.9;70.5
52343;BME280;38277;51.972;4.624;2023-03-18T00:58:16;100930.0;;;12.9;71.0
52343;BME280;38277;51.972;4.624;2023-03-18T01:08:12;100930.0;;;12.8;71.0
52343;BME280;38277;51.972;4.624;2023-03-18T01:11:50;100930.0;;;12.8;71.0
52343;BME280;38277;51.972;4.624;2023-03-18T01:16:13;100930.0;;;12.8;71.5
52343;BME280;38277;51.972;4.624;2023-03-18T01:21:01;100940.0;;;12.8;71.5
52343;BME280;38277;51.972;4.624;2023-03-18T01:25:22;100940.0;;;12.8;71.5
52343;BME280;38277;51.972;4.624;2023-03-18T01:29:48;100940.0;;;12.8;72.0
52343;BME280;38277;51.972;4.624;2023-03-18T01:34:22;100940.0;;;12.8;72.0
52343;BME280;38277;51.972;4.624;2023-03-18T01:38:49;100940.0;;;12.8;72.5
52343;BME280;38277;51.972;4.624;2023-03-18T01:43:19;100940.0;;;12.8;72.5
52343;BME280;38277;51.972;4.624;2023-03-18T01:47:49;100940.0;;;12.7;73.0
52343;BME280;38277;51.972;4.624;2023-03-18T01:52:31;100940.0;;;12.7;73.0
52343;BME280;38277;51.972;4.624;2023-03-18T01:56:36;100930.0;;;12.7;73.0
52343;BME280;38277;51.972;4.624;2023-03-18T02:01:16;100930.0;;;12.6;73.5
52343;BME280;38277;51.972;4.624;2023-03-18T02:05:39;100940.0;;;12.6;74.0
52343;BME280;38277;51.972;4.624;2023-03-18T02:11:15;100950.0;;;12.6;74.0
52343;BME280;38277;51.972;4.624;2023-03-18T02:14:50;100940.0;;;12.6;74.0
52343;BME280;38277;51.972;4.624;2023-03-18T02:19:25;100940.0;;;12.5;74.5
52343;BME280;38277;51.972;4.624;2023-03-18T02:24:06;100950.0;;;12.5;74.5
52343;BME280;38277;51.972;4.624;2023-03-18T02:28:58;100960.0;;;12.5;74.5
52343;BME280;38277;51.972;4.624;2023-03-18T02:32:40;100960.0;;;12.5;74.5
52343;BME280;38277;51.972;4.624;2023-03-18T02:37:27;100960.0;;;12.5;75.0
52343;BME280;38277;51.972;4.624;2023-03-18T02:41:56;100950.0;;;12.5;75.0
52343;BME280;38277;51.972;4.624;2023-03-18T02:47:05;100950.0;;;12.5;75.0
52343;BME280;38277;51.972;4.624;2023-03-18T02:50:53;100960.0;;;12.5;75.5
52343;BME280;38277;51.972;4.624;2023-03-18T02:55:21;100960.0;;;12.5;75.5
52343;BME280;38277;51.972;4.624;2023-03-18T02:59:49;100960.0;;;12.5;75.5
52343;BME280;38277;51.972;4.624;2023-03-18T03:04:59;100970.0;;;12.5;75.0
52343;BME280;38277;51.972;4.624;2023-03-18T03:08:51;100970.0;;;12.5;75.5
52343;BME280;38277;51.972;4.624;2023-03-18T03:13:02;100950.0;;;12.6;76.0
52343;BME280;38277;51.972;4.624;2023-03-18T03:17:57;100960.0;;;12.6;76.5
52343;BME280;38277;51.972;4.624;2023-03-18T03:23:14;100960.0;;;12.7;76.5
52343;BME280;38277;51.972;4.624;2023-03-18T03:26:55;100980.0;;;12.8;77.0
52343;BME280;38277;51.972;4.624;2023-03-18T03:35:49;100980.0;;;12.8;77.0
52343;BME280;38277;51.972;4.624;2023-03-18T03:40:52;100980.0;;;12.8;77.5
52343;BME280;38277;51.972;4.624;2023-03-18T03:44:35;100990.0;;;12.8;78.0
52343;BME280;38277;51.972;4.624;2023-03-18T03:49:17;100990.0;;;12.7;78.5
52343;BME280;38277;51.972;4.624;2023-03-18T03:53:35;100990.0;;;12.7;79.0
52343;BME280;38277;51.972;4.624;2023-03-18T03:59:13;100990.0;;;12.7;79.5
52343;BME280;38277;51.972;4.624;2023-03-18T04:02:44;100990.0;;;12.6;80.0
52343;BME280;38277;51.972;4.624;2023-03-18T04:11:51;100990.0;;;12.6;80.5
52343;BME280;38277;51.972;4.624;2023-03-18T04:17:08;100990.0;;;12.6;80.5
52343;BME280;38277;51.972;4.624;2023-03-18T04:20:43;100990.0;;;12.6;80.5
52343;BME280;38277;51.972;4.624;2023-03-18T04:25:21;101000.0;;;12.6;81.0
52343;BME280;38277;51.972;4.624;2023-03-18T04:29:40;101000.0;;;12.5;81.0
52343;BME280;38277;51.972;4.624;2023-03-18T04:34:51;101020.0;;;12.5;81.5
52343;BME280;38277;51.972;4.624;2023-03-18T04:38:43;101020.0;;;12.5;81.5
52343;BME280;38277;51.972;4.624;2023-03-18T04:43:08;101020.0;;;12.5;82.0
52343;BME280;38277;51.972;4.624;2023-03-18T04:47:37;101030.0;;;12.5;82.5
52343;BME280;38277;51.972;4.624;2023-03-18T04:53:07;101040.0;;;12.4;83.0
52343;BME280;38277;51.972;4.624;2023-03-18T04:56:51;101050.0;;;12.4;83.5
52343;BME280;38277;51.972;4.624;2023-03-18T05:01:09;101050.0;;;12.4;83.5
52343;BME280;38277;51.972;4.624;2023-03-18T05:05:40;101060.0;;;12.4;83.5
52343;BME280;38277;51.972;4.624;2023-03-18T05:11:00;101060.0;;;12.4;84.0
52343;BME280;38277;51.972;4.624;2023-03-18T05:14:43;101060.0;;;12.4;84.0
52343;BME280;38277;51.972;4.624;2023-03-18T05:23:39;101050.0;;;12.4;84.0
52343;BME280;38277;51.972;4.624;2023-03-18T05:28:56;101060.0;;;12.4;84.0
52343;BME280;38277;51.972;4.624;2023-03-18T05:33:01;101060.0;;;12.3;84.0
52343;BME280;38277;51.972;4.624;2023-03-18T05:41:55;101070.0;;;12.3;84.5
52343;BME280;38277;51.972;4.624;2023-03-18T05:46:57;101050.0;;;12.3;84.5
52343;BME280;38277;51.972;4.624;2023-03-18T05:50:59;101050.0;;;12.3;84.5
52343;BME280;38277;51.972;4.624;2023-03-18T05:55:22;101050.0;;;12.4;84.5
52343;BME280;38277;51.972;4.624;2023-03-18T05:59:43;101060.0;;;12.3;84.5
52343;BME280;38277;51.972;4.624;2023-03-18T06:04:54;101060.0;;;12.3;84.5
52343;BME280;38277;51.972;4.624;2023-03-18T06:08:44;101070.0;;;12.2;84.5
52343;BME280;38277;51.972;4.624;2023-03-18T06:13:23;101070.0;;;12.1;84.5
52343;BME280;38277;51.972;4.624;2023-03-18T06:18:01;101080.0;;;12.1;84.5
52343;BME280;38277;51.972;4.624;2023-03-18T06:23:04;101080.0;;;12.0;84.0
52343;BME280;38277;51.972;4.624;2023-03-18T06:26:43;101090.0;;;12.0;84.0
52343;BME280;38277;51.972;4.624;2023-03-18T06:31:03;101100.0;;;11.9;84.0
52343;BME280;38277;51.972;4.624;2023-03-18T06:35:46;101100.0;;;11.9;84.5
52343;BME280;38277;51.972;4.624;2023-03-18T06:41:08;101120.0;;;11.8;84.5
52343;BME280;38277;51.972;4.624;2023-03-18T06:44:52;101120.0;;;11.9;85.5
52343;BME280;38277;51.972;4.624;2023-03-18T06:49:25;101120.0;;;12.0;85.5
52343;BME280;38277;51.972;4.624;2023-03-18T06:53:34;101130.0;;;12.1;86.0
52343;BME280;38277;51.972;4.624;2023-03-18T06:59:01;101130.0;;;12.1;86.0
52343;BME280;38277;51.972;4.624;2023-03-18T07:03:01;101130.0;;;12.1;86.0
52343;BME280;38277;51.972;4.624;2023-03-18T07:07:10;101130.0;;;12.2;86.5
52343;BME280;38277;51.972;4.624;2023-03-18T07:11:32;101130.0;;;12.2;86.5
52343;BME280;38277;51.972;4.624;2023-03-18T07:17:13;101130.0;;;12.3;87.0
52343;BME280;38277;51.972;4.624;2023-03-18T07:20:51;101140.0;;;12.3;87.0
52343;BME280;38277;51.972;4.624;2023-03-18T07:25:10;101130.0;;;12.4;87.0
52343;BME280;38277;51.972;4.624;2023-03-18T07:29:38;101130.0;;;12.4;86.5
52343;BME280;38277;51.972;4.624;2023-03-18T07:34:53;101140.0;;;12.5;86.5
52343;BME280;38277;51.972;4.624;2023-03-18T07:38:54;101140.0;;;12.6;86.5
52343;BME280;38277;51.972;4.624;2023-03-18T07:43:10;101140.0;;;12.6;86.0
52343;BME280;38277;51.972;4.624;2023-03-18T07:47:58;101140.0;;;12.7;86.0
52343;BME280;38277;51.972;4.624;2023-03-18T07:52:49;101140.0;;;12.8;85.5
52343;BME280;38277;51.972;4.624;2023-03-18T07:56:51;101150.0;;;12.8;84.5
52343;BME280;38277;51.972;4.624;2023-03-18T08:01:29;101150.0;;;12.9;84.5
52343;BME280;38277;51.972;4.624;2023-03-18T08:05:36;101150.0;;;13.0;84.0
52343;BME280;38277;51.972;4.624;2023-03-18T08:10:48;101130.0;;;13.1;83.0
52343;BME280;38277;51.972;4.624;2023-03-18T08:14:48;101130.0;;;13.1;82.0
52343;BME280;38277;51.972;4.624;2023-03-18T08:19:26;101120.0;;;13.2;82.0
52343;BME280;38277;51.972;4.624;2023-03-18T08:23:39;101130.0;;;13.2;81.5
52343;BME280;38277;51.972;4.624;2023-03-18T08:28:29;101130.0;;;13.3;81.5
52343;BME280;38277;51.972;4.624;2023-03-18T08:32:33;101150.0;;;13.4;81.0
52343;BME280;38277;51.972;4.624;2023-03-18T08:38:00;101150.0;;;13.5;80.5
52343;BME280;38277;51.972;4.624;2023-03-18T08:50:42;101190.0;;;13.9;78.5
52343;BME280;38277;51.972;4.624;2023-03-18T08:59:55;101180.0;;;14.1;76.5
52343;BME280;38277;51.972;4.624;2023-03-18T09:04:13;101190.0;;;14.2;77.0
52343;BME280;38277;51.972;4.624;2023-03-18T09:08:49;101200.0;;;14.3;76.5
52343;BME280;38277;51.972;4.624;2023-03-18T09:13:55;101200.0;;;14.1;76.0
52343;BME280;38277;51.972;4.624;2023-03-18T09:17:57;101210.0;;;13.8;77.0
52343;BME280;38277;51.972;4.624;2023-03-18T09:22:17;101200.0;;;13.6;77.5
52343;BME280;38277;51.972;4.624;2023-03-18T09:26:43;101190.0;;;13.5;78.5
52343;BME280;38277;51.972;4.624;2023-03-18T09:31:48;101180.0;;;13.5;79.0
52343;BME280;38277;51.972;4.624;2023-03-18T09:35:46;101190.0;;;13.6;79.0
52343;BME280;38277;51.972;4.624;2023-03-18T09:40:02;101190.0;;;13.7;78.5
52343;BME280;38277;51.972;4.624;2023-03-18T09:44:53;101190.0;;;13.8;78.5
52343;BME280;38277;51.972;4.624;2023-03-18T09:49:59;101190.0;;;14.0;78.5
52343;BME280;38277;51.972;4.624;2023-03-18T09:54:33;101180.0;;;14.3;77.0
52343;BME280;38277;51.972;4.624;2023-03-18T09:58:26;101190.0;;;14.7;75.5
52343;BME280;38277;51.972;4.624;2023-03-18T10:02:54;101200.0;;;15.0;74.0
52343;BME280;38277;51.972;4.624;2023-03-18T10:07:40;101190.0;;;15.2;73.0
52343;BME280;38277;51.972;4.624;2023-03-18T10:12:03;101190.0;;;15.4;71.5
52343;BME280;38277;51.972;4.624;2023-03-18T10:16:31;101200.0;;;15.5;70.5
52343;BME280;38277;51.972;4.624;2023-03-18T10:21:19;101200.0;;;15.6;70.5
52343;BME280;38277;51.972;4.624;2023-03-18T10:25:18;101200.0;;;15.8;69.0
52343;BME280;38277;51.972;4.624;2023-03-18T10:30:25;101190.0;;;15.9;68.5
52343;BME280;38277;51.972;4.624;2023-03-18T10:34:39;101200.0;;;16.1;67.5
52343;BME280;38277;51.972;4.624;2023-03-18T10:38:56;101210.0;;;16.3;67.0
52343;BME280;38277;51.972;4.624;2023-03-18T10:43:14;101210.0;;;16.4;66.5
52343;BME280;38277;51.972;4.624;2023-03-18T10:47:44;101200.0;;;16.3;66.0
52343;BME280;38277;51.972;4.624;2023-03-18T10:52:27;101210.0;;;16.4;65.5
52343;BME280;38277;51.972;4.624;2023-03-18T10:56:58;101220.0;;;16.4;65.5
52343;BME280;38277;51.972;4.624;2023-03-18T11:01:16;101220.0;;;16.3;66.0
52343;BME280;38277;51.972;4.624;2023-03-18T11:05:40;101210.0;;;16.3;66.5
52343;BME280;38277;51.972;4.624;2023-03-18T11:10:17;101200.0;;;16.1;67.0
52343;BME280;38277;51.972;4.624;2023-03-18T11:15:00;101210.0;;;16.0;68.5
52343;BME280;38277;51.972;4.624;2023-03-18T11:19:22;101200.0;;;16.0;68.5
52343;BME280;38277;51.972;4.624;2023-03-18T11:23:35;101210.0;;;16.3;68.5
52343;BME280;38277;51.972;4.624;2023-03-18T11:28:27;101200.0;;;16.5;67.0
52343;BME280;38277;51.972;4.624;2023-03-18T11:32:49;101180.0;;;16.0;68.5
52343;BME280;38277;51.972;4.624;2023-03-18T11:37:31;101200.0;;;15.7;70.0
52343;BME280;38277;51.972;4.624;2023-03-18T11:41:44;101190.0;;;15.5;70.5
52343;BME280;38277;51.972;4.624;2023-03-18T11:46:31;101190.0;;;15.3;71.0
52343;BME280;38277;51.972;4.624;2023-03-18T11:51:16;101200.0;;;15.3;71.5
52343;BME280;38277;51.972;4.624;2023-03-18T11:55:38;101200.0;;;15.3;71.0
52343;BME280;38277;51.972;4.624;2023-03-18T11:59:51;101190.0;;;15.6;72.0
52343;BME280;38277;51.972;4.624;2023-03-18T12:05:29;101180.0;;;16.4;68.5
52343;BME280;38277;51.972;4.624;2023-03-18T12:10:00;101180.0;;;16.6;67.5
52343;BME280;38277;51.972;4.624;2023-03-18T12:15:13;101190.0;;;16.6;66.5
52343;BME280;38277;51.972;4.624;2023-03-18T12:19:49;101190.0;;;16.4;68.0
52343;BME280;38277;51.972;4.624;2023-03-18T12:24:04;101200.0;;;16.5;66.5
52343;BME280;38277;51.972;4.624;2023-03-18T12:29:47;101200.0;;;16.6;93.0
52343;BME280;38277;51.972;4.624;2023-03-18T12:33:55;101190.0;;;15.9;85.0
52343;BME280;38277;51.972;4.624;2023-03-18T12:39:36;101190.0;;;15.6;80.5
52343;BME280;38277;51.972;4.624;2023-03-18T12:47:15;101180.0;;;15.8;76.5
52343;BME280;38277;51.972;4.624;2023-03-18T12:50:32;101170.0;;;16.1;74.0
52343;BME280;38277;51.972;4.624;2023-03-18T12:53:40;101180.0;;;16.5;71.0
52343;BME280;38277;51.972;4.624;2023-03-18T12:58:31;101190.0;;;17.3;70.0
52343;BME280;38277;51.972;4.624;2023-03-18T13:02:57;101170.0;;;19.5;64.5
52343;BME280;38277;51.972;4.624;2023-03-18T13:16:19;101160.0;;;25.2;44.0
52343;BME280;38277;51.972;4.624;2023-03-18T13:20:55;101160.0;;;24.8;45.0
52343;BME280;38277;51.972;4.624;2023-03-18T13:26:38;101160.0;;;24.9;43.0
52343;BME280;38277;51.972;4.624;2023-03-18T13:30:08;101150.0;;;23.9;44.5
52343;BME280;38277;51.972;4.624;2023-03-18T13:36:47;101150.0;;;22.8;47.0
52343;BME280;38277;51.972;4.624;2023-03-18T13:41:30;101140.0;;;22.7;48.5
52343;BME280;38277;51.972;4.624;2023-03-18T13:43:31;101130.0;;;25.0;44.0
52343;BME280;38277;51.972;4.624;2023-03-18T13:47:42;101130.0;;;25.4;42.5
52343;BME280;38277;51.972;4.624;2023-03-18T13:52:52;101120.0;;;26.0;40.0
52343;BME280;38277;51.972;4.624;2023-03-18T13:57:46;101120.0;;;26.8;38.0
52343;BME280;38277;51.972;4.624;2023-03-18T14:01:29;101120.0;;;26.5;36.0
52343;BME280;38277;51.972;4.624;2023-03-18T14:05:47;101100.0;;;26.0;37.5
52343;BME280;38277;51.972;4.624;2023-03-18T14:11:43;101100.0;;;26.1;36.0
52343;BME280;38277;51.972;4.624;2023-03-18T14:15:28;101090.0;;;27.0;34.5
52343;BME280;38277;51.972;4.624;2023-03-18T14:19:22;101070.0;;;28.7;31.5
52343;BME280;38277;51.972;4.624;2023-03-18T14:23:41;101080.0;;;30.2;29.0
52343;BME280;38277;51.972;4.624;2023-03-18T14:29:15;;;;31.2;
52343;BME280;38277;51.972;4.624;2023-03-18T14:32:57;101070.0;;;31.8;25.5
52343;BME280;38277;51.972;4.624;2023-03-18T14:37:29;101070.0;;;31.9;26.0
52343;BME280;38277;51.972;4.624;2023-03-18T14:41:56;101080.0;;;30.2;27.0
52343;BME280;38277;51.972;4.624;2023-03-18T14:47:18;101080.0;;;28.1;29.5
52343;BME280;38277;51.972;4.624;2023-03-18T14:50:41;101080.0;;;25.8;33.0
52343;BME280;38277;51.972;4.624;2023-03-18T14:55:20;101080.0;;;23.9;36.5
52343;BME280;38277;51.972;4.624;2023-03-18T14:59:37;101080.0;;;22.6;39.5
52343;BME280;38277;51.972;4.624;2023-03-18T15:04:18;101060.0;;;23.5;39.0
52343;BME280;38277;51.972;4.624;2023-03-18T15:08:34;101060.0;;;25.4;35.5
52343;BME280;38277;51.972;4.624;2023-03-18T15:17:46;101050.0;;;26.7;33.0
52343;BME280;38277;51.972;4.624;2023-03-18T15:22:31;101050.0;;;27.2;32.5
52343;BME280;38277;51.972;4.624;2023-03-18T15:26:54;101030.0;;;27.4;31.0
52343;BME280;38277;51.972;4.624;2023-03-18T15:35:43;101020.0;;;27.5;31.0
52343;BME280;38277;51.972;4.624;2023-03-18T15:40:34;101020.0;;;26.3;32.0
52343;BME280;38277;51.972;4.624;2023-03-18T15:44:58;101030.0;;;24.4;35.0
52343;BME280;38277;51.972;4.624;2023-03-18T15:54:01;101040.0;;;22.0;40.5
52343;BME280;38277;51.972;4.624;2023-03-18T15:58:04;101040.0;;;21.4;42.0
52343;BME280;38277;51.972;4.624;2023-03-18T16:07:20;101020.0;;;20.6;44.0
52343;BME280;38277;51.972;4.624;2023-03-18T16:11:33;101030.0;;;20.2;45.0
52343;BME280;38277;51.972;4.624;2023-03-18T16:16:30;101030.0;;;19.6;47.0
52343;BME280;38277;51.972;4.624;2023-03-18T16:20:55;101030.0;;;19.2;48.0
52343;BME280;38277;51.972;4.624;2023-03-18T16:29:48;101030.0;;;18.4;49.5
52343;BME280;38277;51.972;4.624;2023-03-18T16:34:18;101030.0;;;18.1;50.0
52343;BME280;38277;51.972;4.624;2023-03-18T16:38:48;101030.0;;;17.9;51.0
52343;BME280;38277;51.972;4.624;2023-03-18T16:43:30;101030.0;;;17.7;52.0
52343;BME280;38277;51.972;4.624;2023-03-18T16:47:53;101030.0;;;17.5;52.5
52343;BME280;38277;51.972;4.624;2023-03-18T16:52:10;101030.0;;;17.4;53.0
52343;BME280;38277;51.972;4.624;2023-03-18T16:56:39;101040.0;;;17.3;54.0
52343;BME280;38277;51.972;4.624;2023-03-18T17:05:49;101040.0;;;17.1;55.5
52343;BME280;38277;51.972;4.624;2023-03-18T17:10:25;101040.0;;;17.1;55.5
52343;BME280;38277;51.972;4.624;2023-03-18T17:19:28;101050.0;;;16.9;56.5
52343;BME280;38277;51.972;4.624;2023-03-18T17:23:36;101050.0;;;16.8;56.5
52343;BME280;38277;51.972;4.624;2023-03-18T17:28:06;101040.0;;;16.8;57.0
52343;BME280;38277;51.972;4.624;2023-03-18T17:32:52;101050.0;;;16.7;57.0
52343;BME280;38277;51.972;4.624;2023-03-18T17:41:59;101060.0;;;16.6;57.5
52343;BME280;38277;51.972;4.624;2023-03-18T17:46:14;101070.0;;;16.5;58.0
52343;BME280;38277;51.972;4.624;2023-03-18T17:50:39;101080.0;;;16.5;58.0
52343;BME280;38277;51.972;4.624;2023-03-18T17:55:12;101070.0;;;16.4;58.5
52343;BME280;38277;51.972;4.624;2023-03-18T17:59:49;101070.0;;;16.3;58.5
52343;BME280;38277;51.972;4.624;2023-03-18T18:04:28;101070.0;;;16.3;59.0
52343;BME280;38277;51.972;4.624;2023-03-18T18:08:59;101090.0;;;16.2;59.5
52343;BME280;38277;51.972;4.624;2023-03-18T18:17:47;101100.0;;;16.1;60.0
52343;BME280;38277;51.972;4.624;2023-03-18T18:22:24;101090.0;;;16.0;60.5
52343;BME280;38277;51.972;4.624;2023-03-18T18:35:47;101100.0;;;15.8;60.5
52343;BME280;38277;51.972;4.624;2023-03-18T18:40:20;101100.0;;;15.7;61.0
52343;BME280;38277;51.972;4.624;2023-03-18T18:44:47;101100.0;;;15.7;61.5
52343;BME280;38277;51.972;4.624;2023-03-18T18:53:40;101100.0;;;15.5;62.5
52343;BME280;38277;51.972;4.624;2023-03-18T18:58:29;101100.0;;;15.5;62.5
52343;BME280;38277;51.972;4.624;2023-03-18T19:07:04;101150.0;;;15.3;66.0
52343;BME280;38277;51.972;4.624;2023-03-18T19:11:33;101160.0;;;14.8;69.0
52343;BME280;38277;51.972;4.624;2023-03-18T19:16:26;101160.0;;;14.4;71.5
52343;BME280;38277;51.972;4.624;2023-03-18T19:20:31;101150.0;;;14.1;73.5
52343;BME280;38277;51.972;4.624;2023-03-18T19:29:52;101130.0;;;13.6;76.0
52343;BME280;38277;51.972;4.624;2023-03-18T19:34:29;101140.0;;;13.4;77.0
52343;BME280;38277;51.972;4.624;2023-03-18T19:38:39;101140.0;;;13.3;78.5
52343;BME280;38277;51.972;4.624;2023-03-18T19:47:37;101140.0;;;13.2;79.5
52343;BME280;38277;51.972;4.624;2023-03-18T19:52:05;101140.0;;;13.2;80.0
52343;BME280;38277;51.972;4.624;2023-03-18T19:56:36;101140.0;;;13.1;81.0
52343;BME280;38277;51.972;4.624;2023-03-18T20:01:23;101140.0;;;13.1;81.5
52343;BME280;38277;51.972;4.624;2023-03-18T20:05:56;101150.0;;;13.1;82.0
52343;BME280;38277;51.972;4.624;2023-03-18T20:10:10;101160.0;;;13.1;82.0
52343;BME280;38277;51.972;4.624;2023-03-18T20:15:00;101150.0;;;13.1;83.0
52343;BME280;38277;51.972;4.624;2023-03-18T20:20:08;101160.0;;;13.1;83.5
52343;BME280;38277;51.972;4.624;2023-03-18T20:23:37;101160.0;;;13.1;84.0
52343;BME280;38277;51.972;4.624;2023-03-18T20:28:25;101160.0;;;13.1;84.5
52343;BME280;38277;51.972;4.624;2023-03-18T20:33:00;101160.0;;;13.1;85.0
52343;BME280;38277;51.972;4.624;2023-03-18T20:37:08;101170.0;;;13.1;85.0
52343;BME280;38277;51.972;4.624;2023-03-18T20:41:56;101170.0;;;13.1;85.0
52343;BME280;38277;51.972;4.624;2023-03-18T20:46:20;101180.0;;;13.1;85.0
52343;BME280;38277;51.972;4.624;2023-03-18T20:50:39;101180.0;;;13.1;85.0
52343;BME280;38277;51.972;4.624;2023-03-18T20:59:53;101190.0;;;13.1;84.5
52343;BME280;38277;51.972;4.624;2023-03-18T21:04:09;101200.0;;;13.1;84.5
52343;BME280;38277;51.972;4.624;2023-03-18T21:08:47;101200.0;;;13.1;84.0
52343;BME280;38277;51.972;4.624;2023-03-18T21:14:13;101200.0;;;13.1;83.5
52343;BME280;38277;51.972;4.624;2023-03-18T21:17:53;101200.0;;;13.0;83.5
52343;BME280;38277;51.972;4.624;2023-03-18T21:22:28;101200.0;;;13.0;84.0
52343;BME280;38277;51.972;4.624;2023-03-18T21:26:33;101200.0;;;13.0;84.0
52343;BME280;38277;51.972;4.624;2023-03-18T21:31:19;101200.0;;;13.0;84.0
52343;BME280;38277;51.972;4.624;2023-03-18T21:36:22;101200.0;;;12.9;84.0
52343;BME280;38277;51.972;4.624;2023-03-18T21:40:24;101210.0;;;12.9;84.0
52343;BME280;38277;51.972;4.624;2023-03-18T21:44:50;101210.0;;;12.9;84.0
52343;BME280;38277;51.972;4.624;2023-03-18T21:50:19;101200.0;;;12.9;84.0
52343;BME280;38277;51.972;4.624;2023-03-18T21:54:36;101200.0;;;12.9;84.5
52343;BME280;38277;51.972;4.624;2023-03-18T21:58:26;101190.0;;;12.9;84.5
52343;BME280;38277;51.972;4.624;2023-03-18T22:02:53;101200.0;;;12.9;84.5
52343;BME280;38277;51.972;4.624;2023-03-18T22:12:39;101200.0;;;12.8;84.5
52343;BME280;38277;51.972;4.624;2023-03-18T22:16:19;101190.0;;;12.8;84.5
52343;BME280;38277;51.972;4.624;2023-03-18T22:20:57;101200.0;;;12.7;85.0
52343;BME280;38277;51.972;4.624;2023-03-18T22:25:24;101200.0;;;12.7;85.0
52343;BME280;38277;51.972;4.624;2023-03-18T22:29:59;101190.0;;;12.7;85.0
52343;BME280;38277;51.972;4.624;2023-03-18T22:34:22;101210.0;;;12.7;85.5
52343;BME280;38277;51.972;4.624;2023-03-18T22:38:48;101200.0;;;12.7;85.5
52343;BME280;38277;51.972;4.624;2023-03-18T22:47:46;101190.0;;;12.6;86.5
52343;BME280;38277;51.972;4.624;2023-03-18T22:52:04;101190.0;;;12.6;86.5
52343;BME280;38277;51.972;4.624;2023-03-18T22:56:41;101190.0;;;12.5;87.0
52343;BME280;38277;51.972;4.624;2023-03-18T23:01:29;101190.0;;;12.5;87.0
52343;BME280;38277;51.972;4.624;2023-03-18T23:05:49;101190.0;;;12.5;87.5
52343;BME280;38277;51.972;4.624;2023-03-18T23:10:22;101190.0;;;12.5;88.0
52343;BME280;38277;51.972;4.624;2023-03-18T23:14:48;101190.0;;;12.5;88.0
52343;BME280;38277;51.972;4.624;2023-03-18T23:19:26;101190.0;;;12.4;88.5
52343;BME280;38277;51.972;4.624;2023-03-18T23:23:40;101200.0;;;12.4;88.5
52343;BME280;38277;51.972;4.624;2023-03-18T23:28:11;101190.0;;;12.4;89.0
52343;BME280;38277;51.972;4.624;2023-03-18T23:32:44;101190.0;;;12.5;89.0
52343;BME280;38277;51.972;4.624;2023-03-18T23:37:21;101190.0;;;12.5;89.0
52343;BME280;38277;51.972;4.624;2023-03-18T23:41:37;101190.0;;;12.5;89.0
52343;BME280;38277;51.972;4.624;2023-03-18T23:46:08;101180.0;;;12.4;89.5
52343;BME280;38277;51.972;4.624;2023-03-18T23:50:51;101190.0;;;12.4;89.5
52343;BME280;38277;51.972;4.624;2023-03-18T23:55:23;101190.0;;;12.4;89.5
52343;BME280;38277;51.972;4.624;2023-03-18T23:59:34;101200.0;;;12.4;89.5
